sensor_id;sensor_type;location;lat;lon;timestamp;P1;durP1;ratioP1;P2;durP2;ratioP2
43560;SDS011;32305;46.410;17.394;2023-06-10T00:02:18;1.58;;;1.48;;
43560;SDS011;32305;46.410;17.394;2023-06-10T00:04:45;1.83;;;1.73;;
43560;SDS011;32305;46.410;17.394;2023-06-10T00:07:14;2.00;;;1.90;;
43560;SDS011;32305;46.410;17.394;2023-06-10T00:09:41;1.60;;;1.50;;
43560;SDS011;32305;46.410;17.394;2023-06-10T00:12:08;1.63;;;1.45;;
43560;SDS011;32305;46.410;17.394;2023-06-10T00:14:37;1.42;;;1.40;;
43560;SDS011;32305;46.410;17.394;2023-06-10T00:17:06;1.65;;;1.55;;
43560;SDS011;32305;46.410;17.394;2023-06-10T00:19:38;1.98;;;1.88;;
43560;SDS011;32305;46.410;17.394;2023-06-10T00:22:07;1.70;;;1.60;;
43560;SDS011;32305;46.410;17.394;2023-06-10T00:24:37;1.67;;;1.58;;
43560;SDS011;32305;46.410;17.394;2023-06-10T00:27:05;1.83;;;1.73;;
43560;SDS011;32305;46.410;17.394;2023-06-10T00:29:33;1.50;;;1.42;;
43560;SDS011;32305;46.410;17.394;2023-06-10T00:32:01;1.75;;;1.65;;
43560;SDS011;32305;46.410;17.394;2023-06-10T00:34:29;1.80;;;1.70;;
43560;SDS011;32305;46.410;17.394;2023-06-10T00:36:56;2.20;;;2.03;;
43560;SDS011;32305;46.410;17.394;2023-06-10T00:39:24;1.80;;;1.70;;
43560;SDS011;32305;46.410;17.394;2023-06-10T00:41:51;1.80;;;1.70;;
43560;SDS011;32305;46.410;17.394;2023-06-10T00:44:18;1.63;;;1.52;;
43560;SDS011;32305;46.410;17.394;2023-06-10T00:46:45;1.85;;;1.75;;
43560;SDS011;32305;46.410;17.394;2023-06-10T00:49:12;1.98;;;1.88;;
43560;SDS011;32305;46.410;17.394;2023-06-10T00:51:40;1.40;;;1.40;;
43560;SDS011;32305;46.410;17.394;2023-06-10T00:54:07;1.70;;;1.60;;
43560;SDS011;32305;46.410;17.394;2023-06-10T00:56:34;1.55;;;1.45;;
43560;SDS011;32305;46.410;17.394;2023-06-10T00:59:02;1.80;;;1.70;;
43560;SDS011;32305;46.410;17.394;2023-06-10T01:01:30;1.55;;;1.45;;
43560;SDS011;32305;46.410;17.394;2023-06-10T01:03:58;1.92;;;1.60;;
43560;SDS011;32305;46.410;17.394;2023-06-10T01:06:41;1.75;;;1.65;;
43560;SDS011;32305;46.410;17.394;2023-06-10T01:09:25;1.90;;;1.80;;
43560;SDS011;32305;46.410;17.394;2023-06-10T01:12:26;1.85;;;1.75;;
43560;SDS011;32305;46.410;17.394;2023-06-10T01:15:08;1.35;;;1.35;;
43560;SDS011;32305;46.410;17.394;2023-06-10T01:17:52;1.60;;;1.50;;
43560;SDS011;32305;46.410;17.394;2023-06-10T01:20:28;1.73;;;1.63;;
43560;SDS011;32305;46.410;17.394;2023-06-10T01:22:59;1.60;;;1.50;;
43560;SDS011;32305;46.410;17.394;2023-06-10T01:25:27;1.63;;;1.52;;
43560;SDS011;32305;46.410;17.394;2023-06-10T01:28:11;2.00;;;1.85;;
43560;SDS011;32305;46.410;17.394;2023-06-10T01:33:44;2.03;;;1.92;;
43560;SDS011;32305;46.410;17.394;2023-06-10T01:36:14;1.65;;;1.55;;
43560;SDS011;32305;46.410;17.394;2023-06-10T01:38:44;1.90;;;1.80;;
43560;SDS011;32305;46.410;17.394;2023-06-10T01:41:14;1.65;;;1.55;;
43560;SDS011;32305;46.410;17.394;2023-06-10T01:43:44;1.70;;;1.60;;
43560;SDS011;32305;46.410;17.394;2023-06-10T01:46:12;1.73;;;1.63;;
43560;SDS011;32305;46.410;17.394;2023-06-10T01:48:41;1.60;;;1.50;;
43560;SDS011;32305;46.410;17.394;2023-06-10T01:51:08;1.80;;;1.70;;
43560;SDS011;32305;46.410;17.394;2023-06-10T01:53:35;1.50;;;1.40;;
43560;SDS011;32305;46.410;17.394;2023-06-10T01:56:03;1.58;;;1.48;;
43560;SDS011;32305;46.410;17.394;2023-06-10T01:58:30;1.35;;;1.30;;
43560;SDS011;32305;46.410;17.394;2023-06-10T02:00:57;1.60;;;1.50;;
43560;SDS011;32305;46.410;17.394;2023-06-10T02:03:24;1.70;;;1.60;;
43560;SDS011;32305;46.410;17.394;2023-06-10T02:05:52;1.50;;;1.40;;
43560;SDS011;32305;46.410;17.394;2023-06-10T02:08:19;1.48;;;1.40;;
43560;SDS011;32305;46.410;17.394;2023-06-10T02:10:46;1.10;;;1.10;;
43560;SDS011;32305;46.410;17.394;2023-06-10T02:13:13;1.80;;;1.67;;
43560;SDS011;32305;46.410;17.394;2023-06-10T02:15:40;1.90;;;1.80;;
43560;SDS011;32305;46.410;17.394;2023-06-10T02:18:08;1.75;;;1.65;;
43560;SDS011;32305;46.410;17.394;2023-06-10T02:20:36;1.60;;;1.50;;
43560;SDS011;32305;46.410;17.394;2023-06-10T02:23:03;1.95;;;1.48;;
43560;SDS011;32305;46.410;17.394;2023-06-10T02:25:31;1.52;;;1.42;;
43560;SDS011;32305;46.410;17.394;2023-06-10T02:27:58;1.55;;;1.45;;
43560;SDS011;32305;46.410;17.394;2023-06-10T02:30:25;1.95;;;1.85;;
43560;SDS011;32305;46.410;17.394;2023-06-10T02:32:52;1.45;;;1.35;;
43560;SDS011;32305;46.410;17.394;2023-06-10T02:35:19;1.38;;;1.38;;
43560;SDS011;32305;46.410;17.394;2023-06-10T02:37:47;1.33;;;1.23;;
43560;SDS011;32305;46.410;17.394;2023-06-10T02:40:14;1.73;;;1.63;;
43560;SDS011;32305;46.410;17.394;2023-06-10T02:42:41;1.60;;;1.42;;
43560;SDS011;32305;46.410;17.394;2023-06-10T02:45:08;1.50;;;1.40;;
43560;SDS011;32305;46.410;17.394;2023-06-10T02:47:37;1.30;;;1.20;;
43560;SDS011;32305;46.410;17.394;2023-06-10T02:52:33;1.45;;;1.35;;
43560;SDS011;32305;46.410;17.394;2023-06-10T02:55:00;1.23;;;1.23;;
43560;SDS011;32305;46.410;17.394;2023-06-10T02:57:28;1.52;;;1.45;;
43560;SDS011;32305;46.410;17.394;2023-06-10T02:59:55;1.60;;;1.50;;
43560;SDS011;32305;46.410;17.394;2023-06-10T03:02:22;1.50;;;1.40;;
43560;SDS011;32305;46.410;17.394;2023-06-10T03:04:55;1.77;;;1.67;;
43560;SDS011;32305;46.410;17.394;2023-06-10T03:07:22;1.60;;;1.50;;
43560;SDS011;32305;46.410;17.394;2023-06-10T03:09:49;1.25;;;1.25;;
43560;SDS011;32305;46.410;17.394;2023-06-10T03:12:17;1.63;;;1.52;;
43560;SDS011;32305;46.410;17.394;2023-06-10T03:14:44;1.60;;;1.50;;
43560;SDS011;32305;46.410;17.394;2023-06-10T03:17:11;1.40;;;1.30;;
43560;SDS011;32305;46.410;17.394;2023-06-10T03:19:38;1.67;;;1.58;;
43560;SDS011;32305;46.410;17.394;2023-06-10T03:22:12;1.17;;;1.17;;
43560;SDS011;32305;46.410;17.394;2023-06-10T03:24:41;1.60;;;1.45;;
43560;SDS011;32305;46.410;17.394;2023-06-10T03:27:10;1.58;;;1.48;;
43560;SDS011;32305;46.410;17.394;2023-06-10T03:29:37;1.60;;;1.50;;
43560;SDS011;32305;46.410;17.394;2023-06-10T03:32:04;1.83;;;1.73;;
43560;SDS011;32305;46.410;17.394;2023-06-10T03:34:32;6.03;;;2.63;;
43560;SDS011;32305;46.410;17.394;2023-06-10T03:37:00;1.80;;;1.38;;
43560;SDS011;32305;46.410;17.394;2023-06-10T03:39:27;1.58;;;1.48;;
43560;SDS011;32305;46.410;17.394;2023-06-10T03:41:55;1.35;;;1.30;;
43560;SDS011;32305;46.410;17.394;2023-06-10T03:44:26;1.33;;;1.23;;
43560;SDS011;32305;46.410;17.394;2023-06-10T03:46:54;1.60;;;1.50;;
43560;SDS011;32305;46.410;17.394;2023-06-10T03:49:22;1.25;;;1.15;;
43560;SDS011;32305;46.410;17.394;2023-06-10T03:51:53;1.40;;;1.40;;
43560;SDS011;32305;46.410;17.394;2023-06-10T03:54:20;1.80;;;1.70;;
43560;SDS011;32305;46.410;17.394;2023-06-10T03:56:48;1.20;;;1.20;;
43560;SDS011;32305;46.410;17.394;2023-06-10T03:59:15;3.10;;;1.60;;
43560;SDS011;32305;46.410;17.394;2023-06-10T04:01:42;1.42;;;1.35;;
43560;SDS011;32305;46.410;17.394;2023-06-10T04:04:11;1.35;;;1.30;;
43560;SDS011;32305;46.410;17.394;2023-06-10T04:06:43;1.20;;;1.20;;
43560;SDS011;32305;46.410;17.394;2023-06-10T04:09:11;1.45;;;1.35;;
43560;SDS011;32305;46.410;17.394;2023-06-10T04:11:39;1.45;;;1.42;;
43560;SDS011;32305;46.410;17.394;2023-06-10T04:14:06;1.50;;;1.40;;
43560;SDS011;32305;46.410;17.394;2023-06-10T04:16:33;1.48;;;1.38;;
43560;SDS011;32305;46.410;17.394;2023-06-10T04:19:01;1.13;;;1.13;;
43560;SDS011;32305;46.410;17.394;2023-06-10T04:21:29;1.45;;;1.35;;
43560;SDS011;32305;46.410;17.394;2023-06-10T04:23:56;1.25;;;1.17;;
43560;SDS011;32305;46.410;17.394;2023-06-10T04:26:23;1.40;;;1.30;;
43560;SDS011;32305;46.410;17.394;2023-06-10T04:28:52;1.13;;;1.13;;
43560;SDS011;32305;46.410;17.394;2023-06-10T04:31:19;1.23;;;1.20;;
43560;SDS011;32305;46.410;17.394;2023-06-10T04:33:47;1.63;;;1.17;;
43560;SDS011;32305;46.410;17.394;2023-06-10T04:36:14;1.50;;;1.40;;
43560;SDS011;32305;46.410;17.394;2023-06-10T04:38:41;1.48;;;1.45;;
43560;SDS011;32305;46.410;17.394;2023-06-10T04:41:08;1.50;;;1.40;;
43560;SDS011;32305;46.410;17.394;2023-06-10T04:43:36;1.48;;;1.40;;
43560;SDS011;32305;46.410;17.394;2023-06-10T04:46:03;1.63;;;1.52;;
43560;SDS011;32305;46.410;17.394;2023-06-10T04:48:34;1.50;;;1.40;;
43560;SDS011;32305;46.410;17.394;2023-06-10T04:51:02;1.67;;;1.58;;
43560;SDS011;32305;46.410;17.394;2023-06-10T04:53:29;1.80;;;1.70;;
43560;SDS011;32305;46.410;17.394;2023-06-10T04:55:57;1.95;;;1.83;;
43560;SDS011;32305;46.410;17.394;2023-06-10T04:58:24;1.83;;;1.73;;
43560;SDS011;32305;46.410;17.394;2023-06-10T05:00:51;2.75;;;1.90;;
43560;SDS011;32305;46.410;17.394;2023-06-10T05:03:18;1.65;;;1.55;;
43560;SDS011;32305;46.410;17.394;2023-06-10T05:05:45;2.20;;;2.00;;
43560;SDS011;32305;46.410;17.394;2023-06-10T05:08:13;1.80;;;1.70;;
43560;SDS011;32305;46.410;17.394;2023-06-10T05:10:40;1.98;;;1.88;;
43560;SDS011;32305;46.410;17.394;2023-06-10T05:13:07;2.20;;;2.00;;
43560;SDS011;32305;46.410;17.394;2023-06-10T05:15:35;2.05;;;1.75;;
43560;SDS011;32305;46.410;17.394;2023-06-10T05:18:02;1.92;;;1.83;;
43560;SDS011;32305;46.410;17.394;2023-06-10T05:20:29;2.15;;;2.05;;
43560;SDS011;32305;46.410;17.394;2023-06-10T05:22:57;4.72;;;2.35;;
43560;SDS011;32305;46.410;17.394;2023-06-10T05:25:25;1.98;;;1.83;;
43560;SDS011;32305;46.410;17.394;2023-06-10T05:27:53;2.00;;;1.90;;
43560;SDS011;32305;46.410;17.394;2023-06-10T05:30:21;2.22;;;1.95;;
43560;SDS011;32305;46.410;17.394;2023-06-10T05:32:48;1.70;;;1.60;;
43560;SDS011;32305;46.410;17.394;2023-06-10T05:35:15;2.63;;;2.05;;
43560;SDS011;32305;46.410;17.394;2023-06-10T05:37:42;2.40;;;2.20;;
43560;SDS011;32305;46.410;17.394;2023-06-10T05:40:10;2.58;;;2.38;;
43560;SDS011;32305;46.410;17.394;2023-06-10T05:42:38;2.50;;;2.30;;
43560;SDS011;32305;46.410;17.394;2023-06-10T05:45:05;2.38;;;2.03;;
43560;SDS011;32305;46.410;17.394;2023-06-10T05:47:33;2.55;;;2.08;;
43560;SDS011;32305;46.410;17.394;2023-06-10T05:50:01;2.72;;;2.42;;
43560;SDS011;32305;46.410;17.394;2023-06-10T05:52:28;2.33;;;2.05;;
43560;SDS011;32305;46.410;17.394;2023-06-10T05:54:56;2.28;;;2.08;;
43560;SDS011;32305;46.410;17.394;2023-06-10T05:57:23;2.30;;;2.20;;
43560;SDS011;32305;46.410;17.394;2023-06-10T05:59:50;3.13;;;2.75;;
43560;SDS011;32305;46.410;17.394;2023-06-10T06:02:17;3.00;;;2.33;;
43560;SDS011;32305;46.410;17.394;2023-06-10T06:04:44;2.60;;;2.40;;
43560;SDS011;32305;46.410;17.394;2023-06-10T06:07:11;2.25;;;2.05;;
43560;SDS011;32305;46.410;17.394;2023-06-10T06:09:38;2.90;;;2.70;;
43560;SDS011;32305;46.410;17.394;2023-06-10T06:12:06;2.63;;;2.42;;
43560;SDS011;32305;46.410;17.394;2023-06-10T06:14:36;2.65;;;2.45;;
43560;SDS011;32305;46.410;17.394;2023-06-10T06:17:06;2.83;;;2.63;;
43560;SDS011;32305;46.410;17.394;2023-06-10T06:19:33;3.13;;;2.35;;
43560;SDS011;32305;46.410;17.394;2023-06-10T06:22:01;2.67;;;2.47;;
43560;SDS011;32305;46.410;17.394;2023-06-10T06:24:29;2.35;;;2.15;;
43560;SDS011;32305;46.410;17.394;2023-06-10T06:26:56;2.17;;;2.00;;
43560;SDS011;32305;46.410;17.394;2023-06-10T06:29:23;2.58;;;2.38;;
43560;SDS011;32305;46.410;17.394;2023-06-10T06:31:50;2.50;;;2.30;;
43560;SDS011;32305;46.410;17.394;2023-06-10T06:34:17;2.80;;;2.60;;
43560;SDS011;32305;46.410;17.394;2023-06-10T06:36:45;2.47;;;2.17;;
43560;SDS011;32305;46.410;17.394;2023-06-10T06:39:12;2.50;;;2.40;;
43560;SDS011;32305;46.410;17.394;2023-06-10T06:41:39;2.95;;;2.70;;
43560;SDS011;32305;46.410;17.394;2023-06-10T06:44:06;2.90;;;2.70;;
43560;SDS011;32305;46.410;17.394;2023-06-10T06:46:33;2.72;;;2.45;;
43560;SDS011;32305;46.410;17.394;2023-06-10T06:49:00;2.67;;;2.47;;
43560;SDS011;32305;46.410;17.394;2023-06-10T06:51:27;2.92;;;2.63;;
43560;SDS011;32305;46.410;17.394;2023-06-10T06:53:55;3.08;;;2.78;;
43560;SDS011;32305;46.410;17.394;2023-06-10T06:56:25;2.80;;;2.60;;
43560;SDS011;32305;46.410;17.394;2023-06-10T06:58:54;3.25;;;2.58;;
43560;SDS011;32305;46.410;17.394;2023-06-10T07:01:23;2.70;;;2.50;;
43560;SDS011;32305;46.410;17.394;2023-06-10T07:03:50;2.78;;;2.58;;
43560;SDS011;32305;46.410;17.394;2023-06-10T07:06:17;2.67;;;2.47;;
43560;SDS011;32305;46.410;17.394;2023-06-10T07:08:45;2.80;;;2.60;;
43560;SDS011;32305;46.410;17.394;2023-06-10T07:11:12;2.78;;;2.58;;
43560;SDS011;32305;46.410;17.394;2023-06-10T07:13:39;2.30;;;2.10;;
43560;SDS011;32305;46.410;17.394;2023-06-10T07:16:08;2.88;;;2.60;;
43560;SDS011;32305;46.410;17.394;2023-06-10T07:18:35;2.88;;;2.58;;
43560;SDS011;32305;46.410;17.394;2023-06-10T07:21:02;4.13;;;2.38;;
43560;SDS011;32305;46.410;17.394;2023-06-10T07:23:29;2.83;;;2.50;;
43560;SDS011;32305;46.410;17.394;2023-06-10T07:25:56;3.90;;;2.30;;
43560;SDS011;32305;46.410;17.394;2023-06-10T07:28:23;2.35;;;2.17;;
43560;SDS011;32305;46.410;17.394;2023-06-10T07:30:50;2.50;;;2.30;;
43560;SDS011;32305;46.410;17.394;2023-06-10T07:33:18;2.65;;;2.45;;
43560;SDS011;32305;46.410;17.394;2023-06-10T07:35:45;2.55;;;2.35;;
43560;SDS011;32305;46.410;17.394;2023-06-10T07:38:12;2.45;;;2.28;;
43560;SDS011;32305;46.410;17.394;2023-06-10T07:40:39;2.47;;;2.28;;
43560;SDS011;32305;46.410;17.394;2023-06-10T07:43:06;2.53;;;2.33;;
43560;SDS011;32305;46.410;17.394;2023-06-10T07:45:33;2.45;;;2.30;;
43560;SDS011;32305;46.410;17.394;2023-06-10T07:48:01;2.50;;;2.30;;
43560;SDS011;32305;46.410;17.394;2023-06-10T07:50:28;2.72;;;2.50;;
43560;SDS011;32305;46.410;17.394;2023-06-10T07:52:55;2.60;;;2.40;;
43560;SDS011;32305;46.410;17.394;2023-06-10T07:55:23;2.40;;;2.20;;
43560;SDS011;32305;46.410;17.394;2023-06-10T07:57:52;2.15;;;1.95;;
43560;SDS011;32305;46.410;17.394;2023-06-10T08:00:20;2.80;;;2.50;;
43560;SDS011;32305;46.410;17.394;2023-06-10T08:02:47;2.50;;;2.30;;
43560;SDS011;32305;46.410;17.394;2023-06-10T08:05:15;2.55;;;2.03;;
43560;SDS011;32305;46.410;17.394;2023-06-10T08:07:42;2.67;;;2.47;;
43560;SDS011;32305;46.410;17.394;2023-06-10T08:10:11;2.30;;;2.10;;
43560;SDS011;32305;46.410;17.394;2023-06-10T08:12:38;3.38;;;2.92;;
43560;SDS011;32305;46.410;17.394;2023-06-10T08:15:05;2.30;;;2.10;;
43560;SDS011;32305;46.410;17.394;2023-06-10T08:17:33;2.50;;;2.30;;
43560;SDS011;32305;46.410;17.394;2023-06-10T08:20:00;2.50;;;2.33;;
43560;SDS011;32305;46.410;17.394;2023-06-10T08:22:27;2.55;;;2.35;;
43560;SDS011;32305;46.410;17.394;2023-06-10T08:24:55;2.55;;;2.30;;
43560;SDS011;32305;46.410;17.394;2023-06-10T08:27:23;2.60;;;2.40;;
43560;SDS011;32305;46.410;17.394;2023-06-10T08:29:50;1.95;;;1.85;;
43560;SDS011;32305;46.410;17.394;2023-06-10T08:32:17;2.67;;;2.47;;
43560;SDS011;32305;46.410;17.394;2023-06-10T08:34:44;2.63;;;2.42;;
43560;SDS011;32305;46.410;17.394;2023-06-10T08:37:11;2.47;;;2.28;;
43560;SDS011;32305;46.410;17.394;2023-06-10T08:39:39;2.10;;;2.00;;
43560;SDS011;32305;46.410;17.394;2023-06-10T08:42:28;2.42;;;2.22;;
43560;SDS011;32305;46.410;17.394;2023-06-10T08:45:07;2.72;;;2.45;;
43560;SDS011;32305;46.410;17.394;2023-06-10T08:47:38;2.50;;;2.30;;
43560;SDS011;32305;46.410;17.394;2023-06-10T08:50:08;2.63;;;2.30;;
43560;SDS011;32305;46.410;17.394;2023-06-10T08:52:40;2.55;;;2.35;;
43560;SDS011;32305;46.410;17.394;2023-06-10T08:55:10;2.50;;;2.38;;
43560;SDS011;32305;46.410;17.394;2023-06-10T08:57:48;2.90;;;2.60;;
43560;SDS011;32305;46.410;17.394;2023-06-10T09:00:16;3.20;;;2.50;;
43560;SDS011;32305;46.410;17.394;2023-06-10T09:02:43;2.80;;;2.60;;
43560;SDS011;32305;46.410;17.394;2023-06-10T09:05:11;2.40;;;2.28;;
43560;SDS011;32305;46.410;17.394;2023-06-10T09:07:39;2.80;;;2.55;;
43560;SDS011;32305;46.410;17.394;2023-06-10T09:10:07;2.30;;;2.10;;
43560;SDS011;32305;46.410;17.394;2023-06-10T09:12:35;2.65;;;2.45;;
43560;SDS011;32305;46.410;17.394;2023-06-10T09:15:05;2.70;;;2.50;;
43560;SDS011;32305;46.410;17.394;2023-06-10T09:17:33;2.47;;;2.28;;
43560;SDS011;32305;46.410;17.394;2023-06-10T09:20:02;2.30;;;2.10;;
43560;SDS011;32305;46.410;17.394;2023-06-10T09:22:30;2.75;;;2.50;;
43560;SDS011;32305;46.410;17.394;2023-06-10T09:25:04;2.05;;;1.95;;
43560;SDS011;32305;46.410;17.394;2023-06-10T09:27:45;3.05;;;2.75;;
43560;SDS011;32305;46.410;17.394;2023-06-10T09:30:24;1.98;;;1.88;;
43560;SDS011;32305;46.410;17.394;2023-06-10T09:32:56;2.50;;;2.30;;
43560;SDS011;32305;46.410;17.394;2023-06-10T09:35:26;2.40;;;2.20;;
43560;SDS011;32305;46.410;17.394;2023-06-10T09:37:58;2.50;;;2.30;;
43560;SDS011;32305;46.410;17.394;2023-06-10T09:40:26;2.33;;;2.13;;
43560;SDS011;32305;46.410;17.394;2023-06-10T09:42:55;2.45;;;2.25;;
43560;SDS011;32305;46.410;17.394;2023-06-10T09:45:25;2.58;;;2.38;;
43560;SDS011;32305;46.410;17.394;2023-06-10T09:48:00;2.67;;;2.47;;
43560;SDS011;32305;46.410;17.394;2023-06-10T09:50:28;2.60;;;2.17;;
43560;SDS011;32305;46.410;17.394;2023-06-10T09:53:00;3.00;;;1.90;;
43560;SDS011;32305;46.410;17.394;2023-06-10T09:55:30;2.25;;;2.13;;
43560;SDS011;32305;46.410;17.394;2023-06-10T09:58:02;2.55;;;2.35;;
43560;SDS011;32305;46.410;17.394;2023-06-10T10:00:33;2.33;;;2.13;;
43560;SDS011;32305;46.410;17.394;2023-06-10T10:03:01;2.58;;;2.38;;
43560;SDS011;32305;46.410;17.394;2023-06-10T10:05:28;2.00;;;1.90;;
43560;SDS011;32305;46.410;17.394;2023-06-10T10:07:56;1.85;;;1.75;;
43560;SDS011;32305;46.410;17.394;2023-06-10T10:10:23;2.15;;;2.05;;
43560;SDS011;32305;46.410;17.394;2023-06-10T10:12:53;2.33;;;1.95;;
43560;SDS011;32305;46.410;17.394;2023-06-10T10:15:25;1.92;;;1.83;;
43560;SDS011;32305;46.410;17.394;2023-06-10T10:17:58;2.22;;;2.13;;
43560;SDS011;32305;46.410;17.394;2023-06-10T10:20:33;2.63;;;2.42;;
43560;SDS011;32305;46.410;17.394;2023-06-10T10:23:04;2.10;;;1.90;;
43560;SDS011;32305;46.410;17.394;2023-06-10T10:25:37;2.65;;;2.40;;
43560;SDS011;32305;46.410;17.394;2023-06-10T10:28:08;1.92;;;1.83;;
43560;SDS011;32305;46.410;17.394;2023-06-10T10:30:40;2.00;;;1.90;;
43560;SDS011;32305;46.410;17.394;2023-06-10T10:33:12;3.15;;;2.20;;
43560;SDS011;32305;46.410;17.394;2023-06-10T10:35:42;1.85;;;1.75;;
43560;SDS011;32305;46.410;17.394;2023-06-10T10:38:12;2.20;;;2.10;;
43560;SDS011;32305;46.410;17.394;2023-06-10T10:40:39;2.72;;;2.53;;
43560;SDS011;32305;46.410;17.394;2023-06-10T10:43:07;2.83;;;2.35;;
43560;SDS011;32305;46.410;17.394;2023-06-10T10:45:35;2.30;;;2.10;;
43560;SDS011;32305;46.410;17.394;2023-06-10T10:48:07;2.83;;;2.63;;
43560;SDS011;32305;46.410;17.394;2023-06-10T10:50:38;1.90;;;1.80;;
43560;SDS011;32305;46.410;17.394;2023-06-10T10:53:07;2.70;;;2.50;;
43560;SDS011;32305;46.410;17.394;2023-06-10T10:55:35;1.70;;;1.60;;
43560;SDS011;32305;46.410;17.394;2023-06-10T10:58:06;1.90;;;1.80;;
43560;SDS011;32305;46.410;17.394;2023-06-10T11:00:34;1.83;;;1.73;;
43560;SDS011;32305;46.410;17.394;2023-06-10T11:03:05;1.80;;;1.70;;
43560;SDS011;32305;46.410;17.394;2023-06-10T11:05:41;1.88;;;1.77;;
43560;SDS011;32305;46.410;17.394;2023-06-10T11:08:21;1.88;;;1.77;;
43560;SDS011;32305;46.410;17.394;2023-06-10T11:11:18;2.22;;;2.10;;
43560;SDS011;32305;46.410;17.394;2023-06-10T11:14:06;2.50;;;2.33;;
43560;SDS011;32305;46.410;17.394;2023-06-10T11:16:40;2.63;;;2.22;;
43560;SDS011;32305;46.410;17.394;2023-06-10T11:19:09;2.10;;;2.00;;
43560;SDS011;32305;46.410;17.394;2023-06-10T11:24:25;1.75;;;1.65;;
43560;SDS011;32305;46.410;17.394;2023-06-10T11:26:53;2.03;;;1.92;;
43560;SDS011;32305;46.410;17.394;2023-06-10T11:29:20;2.17;;;2.08;;
43560;SDS011;32305;46.410;17.394;2023-06-10T11:31:50;1.90;;;1.80;;
43560;SDS011;32305;46.410;17.394;2023-06-10T11:34:21;2.58;;;2.38;;
43560;SDS011;32305;46.410;17.394;2023-06-10T11:36:51;2.42;;;2.22;;
43560;SDS011;32305;46.410;17.394;2023-06-10T11:39:20;2.60;;;2.40;;
43560;SDS011;32305;46.410;17.394;2023-06-10T11:41:49;2.33;;;2.15;;
43560;SDS011;32305;46.410;17.394;2023-06-10T11:44:18;2.33;;;2.13;;
43560;SDS011;32305;46.410;17.394;2023-06-10T11:46:47;2.75;;;2.53;;
43560;SDS011;32305;46.410;17.394;2023-06-10T11:49:15;2.30;;;1.88;;
43560;SDS011;32305;46.410;17.394;2023-06-10T11:51:42;2.67;;;2.40;;
43560;SDS011;32305;46.410;17.394;2023-06-10T11:54:20;3.03;;;2.47;;
43560;SDS011;32305;46.410;17.394;2023-06-10T11:56:48;2.60;;;2.40;;
43560;SDS011;32305;46.410;17.394;2023-06-10T11:59:16;3.03;;;2.75;;
43560;SDS011;32305;46.410;17.394;2023-06-10T12:01:44;2.58;;;2.35;;
43560;SDS011;32305;46.410;17.394;2023-06-10T12:04:13;2.90;;;2.70;;
43560;SDS011;32305;46.410;17.394;2023-06-10T12:06:50;2.75;;;2.55;;
43560;SDS011;32305;46.410;17.394;2023-06-10T12:09:28;3.72;;;2.70;;
43560;SDS011;32305;46.410;17.394;2023-06-10T12:12:03;2.78;;;2.58;;
43560;SDS011;32305;46.410;17.394;2023-06-10T12:17:37;2.75;;;2.55;;
43560;SDS011;32305;46.410;17.394;2023-06-10T12:20:06;2.33;;;2.13;;
43560;SDS011;32305;46.410;17.394;2023-06-10T12:22:41;2.42;;;2.22;;
43560;SDS011;32305;46.410;17.394;2023-06-10T12:25:10;3.75;;;2.65;;
43560;SDS011;32305;46.410;17.394;2023-06-10T12:27:39;2.83;;;2.63;;
43560;SDS011;32305;46.410;17.394;2023-06-10T12:30:18;2.47;;;2.28;;
43560;SDS011;32305;46.410;17.394;2023-06-10T12:32:47;2.47;;;2.28;;
43560;SDS011;32305;46.410;17.394;2023-06-10T12:35:18;2.60;;;2.40;;
43560;SDS011;32305;46.410;17.394;2023-06-10T12:38:01;2.72;;;2.53;;
43560;SDS011;32305;46.410;17.394;2023-06-10T12:40:32;3.47;;;2.45;;
43560;SDS011;32305;46.410;17.394;2023-06-10T12:43:01;2.67;;;2.47;;
43560;SDS011;32305;46.410;17.394;2023-06-10T12:45:30;2.70;;;2.50;;
43560;SDS011;32305;46.410;17.394;2023-06-10T12:50:53;2.83;;;2.63;;
43560;SDS011;32305;46.410;17.394;2023-06-10T12:53:23;3.03;;;2.80;;
43560;SDS011;32305;46.410;17.394;2023-06-10T12:55:53;2.83;;;2.57;;
43560;SDS011;32305;46.410;17.394;2023-06-10T12:58:20;2.67;;;2.40;;
43560;SDS011;32305;46.410;17.394;2023-06-10T13:00:48;2.60;;;2.40;;
43560;SDS011;32305;46.410;17.394;2023-06-10T13:03:19;2.80;;;2.60;;
43560;SDS011;32305;46.410;17.394;2023-06-10T13:05:47;2.85;;;2.65;;
43560;SDS011;32305;46.410;17.394;2023-06-10T13:08:14;3.75;;;2.65;;
43560;SDS011;32305;46.410;17.394;2023-06-10T13:10:42;2.47;;;2.28;;
43560;SDS011;32305;46.410;17.394;2023-06-10T13:13:09;3.10;;;2.80;;
43560;SDS011;32305;46.410;17.394;2023-06-10T13:15:36;2.60;;;2.40;;
43560;SDS011;32305;46.410;17.394;2023-06-10T13:18:09;4.30;;;2.35;;
43560;SDS011;32305;46.410;17.394;2023-06-10T13:20:36;3.38;;;2.60;;
43560;SDS011;32305;46.410;17.394;2023-06-10T13:23:04;2.42;;;2.22;;
43560;SDS011;32305;46.410;17.394;2023-06-10T13:25:31;2.88;;;2.65;;
43560;SDS011;32305;46.410;17.394;2023-06-10T13:27:58;2.50;;;2.30;;
43560;SDS011;32305;46.410;17.394;2023-06-10T13:30:25;2.72;;;2.53;;
43560;SDS011;32305;46.410;17.394;2023-06-10T13:32:53;3.63;;;2.47;;
43560;SDS011;32305;46.410;17.394;2023-06-10T13:35:20;3.85;;;2.35;;
43560;SDS011;32305;46.410;17.394;2023-06-10T13:37:47;2.53;;;2.33;;
43560;SDS011;32305;46.410;17.394;2023-06-10T13:40:14;2.47;;;2.28;;
43560;SDS011;32305;46.410;17.394;2023-06-10T13:42:46;2.42;;;2.22;;
43560;SDS011;32305;46.410;17.394;2023-06-10T13:45:17;2.10;;;2.00;;
43560;SDS011;32305;46.410;17.394;2023-06-10T13:47:44;2.35;;;2.15;;
43560;SDS011;32305;46.410;17.394;2023-06-10T13:50:12;2.60;;;2.38;;
43560;SDS011;32305;46.410;17.394;2023-06-10T13:52:39;1.95;;;1.77;;
43560;SDS011;32305;46.410;17.394;2023-06-10T13:55:07;3.17;;;2.20;;
43560;SDS011;32305;46.410;17.394;2023-06-10T13:57:35;2.35;;;2.15;;
43560;SDS011;32305;46.410;17.394;2023-06-10T14:00:02;2.17;;;2.05;;
43560;SDS011;32305;46.410;17.394;2023-06-10T14:02:30;2.60;;;2.40;;
43560;SDS011;32305;46.410;17.394;2023-06-10T14:04:57;2.83;;;2.63;;
43560;SDS011;32305;46.410;17.394;2023-06-10T14:07:24;2.65;;;2.45;;
43560;SDS011;32305;46.410;17.394;2023-06-10T14:09:52;2.38;;;2.15;;
43560;SDS011;32305;46.410;17.394;2023-06-10T14:12:19;2.60;;;2.40;;
43560;SDS011;32305;46.410;17.394;2023-06-10T14:14:46;2.75;;;2.55;;
43560;SDS011;32305;46.410;17.394;2023-06-10T14:17:14;2.65;;;2.25;;
43560;SDS011;32305;46.410;17.394;2023-06-10T14:19:41;2.38;;;2.17;;
43560;SDS011;32305;46.410;17.394;2023-06-10T14:22:08;2.58;;;2.38;;
43560;SDS011;32305;46.410;17.394;2023-06-10T14:24:35;2.50;;;2.25;;
43560;SDS011;32305;46.410;17.394;2023-06-10T14:27:04;2.88;;;2.67;;
43560;SDS011;32305;46.410;17.394;2023-06-10T14:29:31;2.60;;;2.40;;
43560;SDS011;32305;46.410;17.394;2023-06-10T14:32:00;2.53;;;2.40;;
43560;SDS011;32305;46.410;17.394;2023-06-10T14:34:27;2.63;;;2.42;;
43560;SDS011;32305;46.410;17.394;2023-06-10T14:36:56;2.83;;;2.63;;
43560;SDS011;32305;46.410;17.394;2023-06-10T14:39:23;2.35;;;2.20;;
43560;SDS011;32305;46.410;17.394;2023-06-10T14:41:50;2.53;;;2.33;;
43560;SDS011;32305;46.410;17.394;2023-06-10T14:44:19;2.45;;;2.25;;
43560;SDS011;32305;46.410;17.394;2023-06-10T14:46:46;2.42;;;2.22;;
43560;SDS011;32305;46.410;17.394;2023-06-10T14:49:14;2.03;;;1.92;;
43560;SDS011;32305;46.410;17.394;2023-06-10T14:51:41;2.15;;;2.05;;
43560;SDS011;32305;46.410;17.394;2023-06-10T14:54:09;2.25;;;1.90;;
43560;SDS011;32305;46.410;17.394;2023-06-10T14:56:36;2.22;;;2.10;;
43560;SDS011;32305;46.410;17.394;2023-06-10T14:59:04;2.03;;;1.92;;